createdAt,value
2017-10-17T00:03:50.974Z,15.41
2017-10-17T00:13:50.963Z,15.39
2017-10-17T00:23:50.882Z,15.28
2017-10-17T00:33:50.980Z,15.23
2017-10-17T00:43:50.866Z,15.24
2017-10-17T00:53:50.954Z,15.17
2017-10-17T01:03:50.931Z,15.11
2017-10-17T01:13:50.925Z,15.08
2017-10-17T01:23:51.743Z,15.02
2017-10-17T01:33:50.942Z,14.95
2017-10-17T01:43:51.011Z,14.93
2017-10-17T01:53:50.937Z,14.69
2017-10-17T02:03:50.934Z,14.65
2017-10-17T02:13:50.972Z,14.37
2017-10-17T02:23:50.931Z,14.24
2017-10-17T02:33:50.934Z,13.99
2017-10-17T02:43:50.966Z,13.81
2017-10-17T02:53:50.902Z,13.8
2017-10-17T03:03:50.968Z,13.94
2017-10-17T03:13:50.985Z,13.96
2017-10-17T03:23:50.875Z,13.96
2017-10-17T03:33:50.929Z,13.98
2017-10-17T03:43:50.902Z,13.84
2017-10-17T03:53:50.937Z,13.88
2017-10-17T04:03:50.961Z,13.71
2017-10-17T04:13:51.330Z,13.55
2017-10-17T04:23:50.956Z,13.49
2017-10-17T04:33:50.902Z,13.67
2017-10-17T04:43:51.001Z,13.59
2017-10-17T04:53:50.943Z,13.51
2017-10-17T05:03:50.940Z,13.51
2017-10-17T05:13:50.914Z,13.63
2017-10-17T05:23:50.957Z,13.65
2017-10-17T05:33:50.893Z,13.51
2017-10-17T05:43:50.948Z,13.55
2017-10-17T05:53:50.925Z,13.65
2017-10-17T06:03:50.863Z,13.65
2017-10-17T06:13:50.966Z,13.58
2017-10-17T06:23:50.899Z,13.76
2017-10-17T06:33:50.856Z,13.84
2017-10-17T06:43:50.964Z,13.8
2017-10-17T06:53:50.918Z,14.04
2017-10-17T07:03:50.921Z,14.04
2017-10-17T07:13:50.924Z,14.28
2017-10-17T07:23:51.017Z,14.64
2017-10-17T07:33:51.052Z,14.74
2017-10-17T07:43:50.915Z,14.78
2017-10-17T07:53:51.016Z,15.12
2017-10-17T08:03:50.963Z,15.27
2017-10-17T08:13:50.895Z,15.66
2017-10-17T08:23:51.033Z,15.96
2017-10-17T08:33:50.918Z,16.27
2017-10-17T08:43:50.917Z,16.81
2017-10-17T08:53:50.960Z,17.14
2017-10-17T09:03:50.940Z,17.43
2017-10-17T09:13:50.956Z,17.67
2017-10-17T09:23:50.999Z,17.91
2017-10-17T09:33:51.160Z,18.09
2017-10-17T09:43:51.008Z,18.02
2017-10-17T09:53:51.054Z,18.13
2017-10-17T10:03:51.204Z,18.25
2017-10-17T10:13:52.097Z,18.18
2017-10-17T10:23:51.301Z,18.34
2017-10-17T10:33:51.055Z,18.47
2017-10-17T10:43:51.052Z,18.54
2017-10-17T10:53:51.078Z,18.62
2017-10-17T11:03:51.071Z,19.02
2017-10-17T11:13:51.149Z,19.18
2017-10-17T11:23:51.464Z,19.15
2017-10-17T11:33:51.110Z,19.06
2017-10-17T11:43:51.247Z,19.11
2017-10-17T11:53:51.130Z,19.15
2017-10-17T12:03:51.722Z,19.28
2017-10-17T12:13:54.093Z,19.32
2017-10-17T12:23:51.322Z,19.1
2017-10-17T12:33:51.341Z,18.9
2017-10-17T12:43:51.555Z,18.68
2017-10-17T12:53:51.353Z,18.68
2017-10-17T13:03:51.165Z,18.74
2017-10-17T13:13:51.172Z,18.68
2017-10-17T13:23:51.275Z,18.77
2017-10-17T13:33:51.229Z,18.7
2017-10-17T13:43:51.530Z,18.62
2017-10-17T13:53:51.186Z,18.68
2017-10-17T14:03:51.261Z,18.59
2017-10-17T14:13:51.256Z,18.4
2017-10-17T14:23:51.147Z,18.37
2017-10-17T14:33:51.139Z,18.27
2017-10-17T14:43:51.544Z,18.17
2017-10-17T14:53:51.125Z,17.95
2017-10-17T15:03:51.186Z,17.84
2017-10-17T15:13:51.145Z,17.53
2017-10-17T15:23:51.619Z,17.23
2017-10-17T15:33:51.203Z,17.3
2017-10-17T15:43:51.132Z,17.15
2017-10-17T15:53:51.080Z,17.08
2017-10-17T16:03:51.120Z,16.95
2017-10-17T16:13:51.386Z,16.71
2017-10-17T16:23:51.144Z,16.42
2017-10-17T16:33:51.146Z,16.18
2017-10-17T16:43:51.094Z,15.88
2017-10-17T16:53:51.071Z,15.7
2017-10-17T17:03:51.098Z,15.63
2017-10-17T17:13:51.119Z,15.49
2017-10-17T17:23:51.132Z,15.41
2017-10-17T17:33:51.138Z,15.3
2017-10-17T17:43:51.116Z,15.21
2017-10-17T17:53:51.160Z,15.12
2017-10-17T18:03:51.240Z,14.91
2017-10-17T18:13:51.236Z,14.8
2017-10-17T18:23:51.094Z,14.57
2017-10-17T18:33:51.160Z,14.29
2017-10-17T18:43:51.225Z,14.04
2017-10-17T18:53:51.169Z,13.98
2017-10-17T19:03:51.152Z,13.8
2017-10-17T19:13:51.153Z,13.69
2017-10-17T19:23:51.149Z,13.61
2017-10-17T19:33:51.134Z,13.38
2017-10-17T19:43:51.133Z,13.14
2017-10-17T19:53:51.169Z,13.17
2017-10-17T20:03:51.101Z,12.92
2017-10-17T20:13:51.261Z,12.7
2017-10-17T20:23:51.088Z,12.62
2017-10-17T20:33:51.170Z,12.49
2017-10-17T20:43:51.170Z,12.42
2017-10-17T20:53:51.474Z,12.27
2017-10-17T21:03:51.554Z,12.08
2017-10-17T21:13:51.417Z,11.94
2017-10-17T21:23:52.065Z,11.9
2017-10-17T21:33:51.159Z,11.75
2017-10-17T21:43:51.186Z,11.61
2017-10-17T21:53:51.164Z,11.54
2017-10-17T22:03:51.148Z,11.49
2017-10-17T22:13:51.204Z,11.41
2017-10-17T22:24:16.836Z,11.38
2017-10-17T22:33:51.158Z,11.27
2017-10-17T22:43:51.302Z,11.43
2017-10-17T22:53:52.250Z,11.35
2017-10-17T23:03:51.106Z,11.25
2017-10-17T23:13:51.162Z,11.2
2017-10-17T23:23:51.177Z,11.24
2017-10-17T23:33:51.212Z,11.35
2017-10-17T23:43:51.236Z,11.31
2017-10-17T23:53:51.113Z,11.47
